createdAt,value
2022-12-27T00:00:05.745Z,71.93
2022-12-27T00:02:41.706Z,71.07
2022-12-27T00:05:10.307Z,78.20
2022-12-27T00:07:37.839Z,74.28
2022-12-27T00:10:06.781Z,80.63
2022-12-27T00:12:34.759Z,79.13
2022-12-27T00:15:03.373Z,74.13
2022-12-27T00:17:31.066Z,75.97
2022-12-27T00:19:58.556Z,76.80
2022-12-27T00:22:25.993Z,77.68
2022-12-27T00:24:54.480Z,76.82
2022-12-27T00:27:22.015Z,81.63
2022-12-27T00:29:49.542Z,76.40
2022-12-27T00:32:17.163Z,75.13
2022-12-27T00:34:44.764Z,75.05
2022-12-27T00:37:12.270Z,75.57
2022-12-27T00:39:39.789Z,73.65
2022-12-27T00:42:07.350Z,73.85
2022-12-27T00:44:34.961Z,78.25
2022-12-27T00:47:02.474Z,82.45
2022-12-27T00:49:29.957Z,82.93
2022-12-27T00:51:57.533Z,83.97
2022-12-27T00:54:25.083Z,77.47
2022-12-27T00:56:52.709Z,78.80
2022-12-27T00:59:20.192Z,81.20
2022-12-27T01:01:47.998Z,78.68
2022-12-27T01:04:15.846Z,82.03
2022-12-27T01:06:43.346Z,78.40
2022-12-27T01:09:10.797Z,80.45
2022-12-27T01:11:40.331Z,77.85
2022-12-27T01:14:07.798Z,74.85
2022-12-27T01:16:35.337Z,72.75
2022-12-27T01:19:02.933Z,77.70
2022-12-27T01:21:31.020Z,69.25
2022-12-27T01:23:59.189Z,74.45
2022-12-27T01:26:26.843Z,74.82
2022-12-27T01:28:54.831Z,68.90
2022-12-27T01:31:28.364Z,76.43
2022-12-27T01:33:57.904Z,72.88
2022-12-27T01:36:27.172Z,76.60
2022-12-27T01:38:55.101Z,78.00
2022-12-27T01:41:51.054Z,71.20
2022-12-27T01:44:40.248Z,73.82
2022-12-27T01:47:14.816Z,74.22
2022-12-27T01:49:55.949Z,81.20
2022-12-27T01:52:28.536Z,74.55
2022-12-27T01:55:00.705Z,71.78
2022-12-27T01:57:28.789Z,73.38
2022-12-27T01:59:56.274Z,82.03
2022-12-27T02:02:24.432Z,86.00
2022-12-27T02:04:54.161Z,89.20
2022-12-27T02:07:27.638Z,89.32
2022-12-27T02:09:58.714Z,84.03
2022-12-27T02:12:27.075Z,79.85
2022-12-27T02:14:54.529Z,82.03
2022-12-27T02:17:30.693Z,77.75
2022-12-27T02:20:14.426Z,80.07
2022-12-27T02:23:16.159Z,78.13
2022-12-27T02:26:01.572Z,80.15
2022-12-27T02:28:48.175Z,73.45
2022-12-27T02:31:22.882Z,68.97
2022-12-27T02:33:53.250Z,73.07
2022-12-27T02:36:26.373Z,77.53
2022-12-27T02:38:58.961Z,73.28
2022-12-27T02:41:46.198Z,72.95
2022-12-27T02:44:35.995Z,74.78
2022-12-27T02:47:22.619Z,72.32
2022-12-27T02:50:08.255Z,76.97
2022-12-27T02:53:05.863Z,80.35
2022-12-27T02:56:17.815Z,74.18
2022-12-27T02:59:12.924Z,81.25
2022-12-27T03:02:17.841Z,81.03
2022-12-27T03:05:36.021Z,75.07
2022-12-27T03:08:28.878Z,76.13
2022-12-27T03:11:19.312Z,74.57
2022-12-27T03:14:16.182Z,79.63
2022-12-27T03:16:55.900Z,74.72
2022-12-27T03:19:52.811Z,72.30
2022-12-27T03:22:41.986Z,76.88
2022-12-27T03:25:30.404Z,70.97
2022-12-27T03:28:32.139Z,76.93
2022-12-27T03:31:24.287Z,76.57
2022-12-27T03:34:04.701Z,76.28
2022-12-27T03:36:52.783Z,78.05
2022-12-27T03:39:45.222Z,77.35
2022-12-27T03:42:53.510Z,75.15
2022-12-27T03:45:22.043Z,71.88
2022-12-27T03:47:56.191Z,70.03
2022-12-27T03:50:34.263Z,76.30
2022-12-27T03:53:11.797Z,70.72
2022-12-27T03:55:39.322Z,69.95
2022-12-27T03:58:06.953Z,69.43
2022-12-27T04:00:34.406Z,70.00
2022-12-27T04:03:01.928Z,69.22
2022-12-27T04:05:29.701Z,68.65
2022-12-27T04:08:15.392Z,72.95
2022-12-27T04:11:01.779Z,68.22
2022-12-27T04:13:47.433Z,68.20
2022-12-27T04:16:33.059Z,70.00
2022-12-27T04:19:18.760Z,66.32
2022-12-27T04:22:04.962Z,69.75
2022-12-27T04:24:50.745Z,67.82
2022-12-27T04:27:36.458Z,72.30
2022-12-27T04:30:22.682Z,69.35
2022-12-27T04:33:08.919Z,68.97
2022-12-27T04:35:36.321Z,70.60
2022-12-27T04:38:03.783Z,71.13
2022-12-27T04:40:50.279Z,73.45
2022-12-27T04:43:41.092Z,67.00
2022-12-27T04:46:45.815Z,69.63
2022-12-27T04:49:45.231Z,69.15
2022-12-27T04:52:37.147Z,69.25
2022-12-27T04:55:25.877Z,70.80
2022-12-27T04:57:54.319Z,70.03
2022-12-27T05:00:43.673Z,68.68
2022-12-27T05:03:19.948Z,69.88
2022-12-27T05:05:49.213Z,66.72
2022-12-27T05:08:37.437Z,63.00
2022-12-27T05:11:25.193Z,67.80
2022-12-27T05:14:01.950Z,64.95
2022-12-27T05:16:36.307Z,63.22
2022-12-27T05:19:06.563Z,65.97
2022-12-27T05:21:38.330Z,68.00
2022-12-27T05:24:24.763Z,66.82
2022-12-27T05:26:56.070Z,69.32
2022-12-27T05:29:23.575Z,71.43
2022-12-27T05:31:51.086Z,70.75
2022-12-27T05:34:18.719Z,66.47
2022-12-27T05:36:46.207Z,69.68
2022-12-27T05:39:13.619Z,70.95
2022-12-27T05:41:41.171Z,70.65
2022-12-27T05:44:08.759Z,71.47
2022-12-27T05:46:36.401Z,70.40
2022-12-27T05:49:04.100Z,73.68
2022-12-27T05:51:31.684Z,70.63
2022-12-27T05:53:59.109Z,74.32
2022-12-27T05:56:26.662Z,68.07
2022-12-27T05:58:54.400Z,74.07
2022-12-27T06:01:21.849Z,71.95
2022-12-27T06:03:49.340Z,74.63
2022-12-27T06:06:16.803Z,69.93
2022-12-27T06:08:44.451Z,70.35
2022-12-27T06:11:17.618Z,75.10
2022-12-27T06:13:50.117Z,74.95
2022-12-27T06:16:18.134Z,69.82
2022-12-27T06:18:45.800Z,68.90
2022-12-27T06:21:17.311Z,70.85
2022-12-27T06:23:45.970Z,71.10
2022-12-27T06:26:25.603Z,70.70
2022-12-27T06:28:54.416Z,68.20
2022-12-27T06:31:22.620Z,74.93
2022-12-27T06:33:51.813Z,78.80
2022-12-27T06:36:26.440Z,77.50
2022-12-27T06:38:53.905Z,83.50
2022-12-27T06:41:21.575Z,70.95
2022-12-27T06:43:55.059Z,78.22
2022-12-27T06:46:24.507Z,78.85
2022-12-27T06:48:52.758Z,76.03
2022-12-27T06:51:22.852Z,72.15
2022-12-27T06:53:50.560Z,68.13
2022-12-27T06:56:20.806Z,69.93
2022-12-27T06:58:49.602Z,78.15
2022-12-27T07:01:27.857Z,70.55
2022-12-27T07:03:58.180Z,75.00
2022-12-27T07:06:27.994Z,68.40
2022-12-27T07:08:56.270Z,62.22
2022-12-27T07:11:24.563Z,59.90
2022-12-27T07:13:54.584Z,62.30
2022-12-27T07:16:24.969Z,62.25
2022-12-27T07:18:54.337Z,60.13
2022-12-27T07:21:24.563Z,61.78
2022-12-27T07:23:52.080Z,68.30
2022-12-27T07:26:26.053Z,55.45
2022-12-27T07:28:55.461Z,69.25
2022-12-27T07:31:24.606Z,63.10
2022-12-27T07:33:53.165Z,72.70
2022-12-27T07:36:23.332Z,70.50
2022-12-27T07:38:51.044Z,69.55
2022-12-27T07:41:18.584Z,68.18
2022-12-27T07:43:46.267Z,72.93
2022-12-27T07:46:16.989Z,72.30
2022-12-27T07:48:45.186Z,68.40
2022-12-27T07:51:13.193Z,70.72
2022-12-27T07:53:41.042Z,75.20
2022-12-27T07:56:14.090Z,77.32
2022-12-27T07:58:45.824Z,74.50
2022-12-27T08:01:15.357Z,72.78
2022-12-27T08:03:43.479Z,72.82
2022-12-27T08:06:20.235Z,72.10
2022-12-27T08:08:47.791Z,80.45
2022-12-27T08:11:15.362Z,81.03
2022-12-27T08:13:42.854Z,75.18
2022-12-27T08:16:16.727Z,72.55
2022-12-27T08:18:44.676Z,76.97
2022-12-27T08:22:02.567Z,75.55
2022-12-27T08:24:30.052Z,79.80
2022-12-27T08:26:57.550Z,79.18
2022-12-27T08:29:26.191Z,87.45
2022-12-27T08:31:53.748Z,87.25
2022-12-27T08:34:21.333Z,84.53
2022-12-27T08:36:56.247Z,78.13
2022-12-27T08:39:24.622Z,76.07
2022-12-27T08:41:55.005Z,82.57
2022-12-27T08:44:23.667Z,80.40
2022-12-27T08:46:51.299Z,80.82
2022-12-27T08:49:19.511Z,75.72
2022-12-27T08:51:47.211Z,78.95
2022-12-27T08:54:14.709Z,76.43
2022-12-27T08:56:42.200Z,76.53
2022-12-27T08:59:09.613Z,81.55
2022-12-27T09:01:37.265Z,74.97
2022-12-27T09:04:05.111Z,81.97
2022-12-27T09:06:32.744Z,78.85
2022-12-27T09:09:01.488Z,80.95
2022-12-27T09:11:31.791Z,74.28
2022-12-27T09:14:02.586Z,74.57
2022-12-27T09:16:31.311Z,78.15
2022-12-27T09:18:59.770Z,74.25
2022-12-27T09:21:31.801Z,78.05
2022-12-27T09:23:59.642Z,87.85
2022-12-27T09:26:29.616Z,83.30
2022-12-27T09:28:58.520Z,74.13
2022-12-27T09:31:26.558Z,70.30
2022-12-27T09:34:08.525Z,77.57
2022-12-27T09:36:55.384Z,72.18
2022-12-27T09:39:25.969Z,77.47
2022-12-27T09:45:18.302Z,81.63
2022-12-27T09:48:02.852Z,87.07
2022-12-27T09:50:38.450Z,76.50
2022-12-27T09:53:17.573Z,67.75
2022-12-27T09:55:53.509Z,73.68
2022-12-27T09:58:22.743Z,66.13
2022-12-27T10:00:56.025Z,63.50
2022-12-27T10:03:28.521Z,64.68
2022-12-27T10:06:09.504Z,62.88
2022-12-27T10:08:44.929Z,61.92
2022-12-27T10:11:36.744Z,61.50
2022-12-27T10:14:22.103Z,61.58
2022-12-27T10:17:27.188Z,59.22
2022-12-27T10:20:04.801Z,59.47
2022-12-27T10:22:40.888Z,62.30
2022-12-27T10:25:14.081Z,61.78
2022-12-27T10:27:41.891Z,57.05
2022-12-27T10:30:15.666Z,56.00
2022-12-27T10:32:43.992Z,59.42
2022-12-27T10:35:16.323Z,57.08
2022-12-27T10:37:45.192Z,57.83
2022-12-27T10:40:21.142Z,60.60
2022-12-27T10:43:17.188Z,58.97
2022-12-27T10:45:44.848Z,59.20
2022-12-27T10:48:41.524Z,62.65
2022-12-27T10:51:18.123Z,57.33
2022-12-27T10:53:45.392Z,54.85
2022-12-27T10:56:27.861Z,53.88
2022-12-27T10:59:21.045Z,56.47
2022-12-27T11:02:19.200Z,55.83
2022-12-27T11:05:01.188Z,53.28
2022-12-27T11:07:33.853Z,56.63
2022-12-27T11:10:15.784Z,54.67
2022-12-27T11:13:06.985Z,53.72
2022-12-27T11:15:40.872Z,54.55
2022-12-27T11:18:18.124Z,52.42
2022-12-27T11:20:50.908Z,48.60
2022-12-27T11:23:21.301Z,55.28
2022-12-27T11:25:55.603Z,52.75
2022-12-27T11:28:33.954Z,52.00
2022-12-27T11:31:09.174Z,53.28
2022-12-27T11:33:41.288Z,53.17
2022-12-27T11:36:12.419Z,56.35
2022-12-27T11:38:44.690Z,52.25
2022-12-27T11:41:12.037Z,53.05
2022-12-27T11:43:53.277Z,56.33
2022-12-27T11:46:59.008Z,56.10
2022-12-27T11:49:33.867Z,57.95
2022-12-27T11:52:19.339Z,58.00
2022-12-27T11:55:18.895Z,60.53
2022-12-27T11:57:53.043Z,53.92
2022-12-27T12:00:27.244Z,56.78
2022-12-27T12:03:35.337Z,56.95
2022-12-27T12:06:34.658Z,54.60
2022-12-27T12:09:08.038Z,55.97
2022-12-27T12:11:55.648Z,52.97
2022-12-27T12:14:56.476Z,56.55
2022-12-27T12:17:41.798Z,54.75
2022-12-27T12:20:32.267Z,54.80
2022-12-27T12:23:13.761Z,53.83
2022-12-27T12:26:20.675Z,54.08
2022-12-27T12:29:00.812Z,54.80
2022-12-27T12:32:02.078Z,54.70
2022-12-27T12:34:51.977Z,54.03
2022-12-27T12:37:22.074Z,53.67
2022-12-27T12:40:26.609Z,60.67
2022-12-27T12:43:12.523Z,59.08
2022-12-27T12:48:07.280Z,53.47
2022-12-27T12:51:08.526Z,54.75
2022-12-27T12:53:53.286Z,57.45
2022-12-27T12:56:48.695Z,54.50
2022-12-27T12:59:36.902Z,56.17
2022-12-27T13:02:41.805Z,55.55
2022-12-27T13:05:22.761Z,58.58
2022-12-27T13:08:08.103Z,54.35
2022-12-27T13:11:02.253Z,56.42
2022-12-27T13:13:45.100Z,55.90
2022-12-27T13:16:31.147Z,58.17
2022-12-27T13:19:17.154Z,56.55
2022-12-27T13:22:12.566Z,57.63
2022-12-27T13:24:45.611Z,57.10
2022-12-27T13:27:35.454Z,55.92
2022-12-27T13:30:25.061Z,59.00
2022-12-27T13:33:11.988Z,60.25
2022-12-27T13:35:54.230Z,54.75
2022-12-27T13:38:21.592Z,55.38
2022-12-27T13:41:13.267Z,54.75
2022-12-27T13:44:14.439Z,55.47
2022-12-27T13:47:21.133Z,59.90
2022-12-27T13:52:57.598Z,58.30
2022-12-27T13:55:55.890Z,55.22
2022-12-27T14:01:05.577Z,58.50
2022-12-27T14:03:39.043Z,53.72
2022-12-27T14:06:29.884Z,59.22
2022-12-27T14:09:34.402Z,59.65
2022-12-27T14:12:27.562Z,68.50
2022-12-27T14:15:00.194Z,61.00
2022-12-27T14:17:39.871Z,56.95
2022-12-27T14:20:49.173Z,55.13
2022-12-27T14:23:42.629Z,53.47
2022-12-27T14:26:12.270Z,57.97
2022-12-27T14:29:02.639Z,57.60
2022-12-27T14:31:57.921Z,60.03
2022-12-27T14:34:48.427Z,58.50
2022-12-27T14:38:04.024Z,55.92
2022-12-27T14:40:58.442Z,57.17
2022-12-27T14:43:29.472Z,71.18
2022-12-27T14:46:15.510Z,90.72
2022-12-27T14:48:54.929Z,72.72
2022-12-27T14:52:10.530Z,73.68
2022-12-27T14:54:52.031Z,70.50
2022-12-27T14:57:33.845Z,70.18
2022-12-27T15:00:16.884Z,66.80
2022-12-27T15:03:09.097Z,63.20
2022-12-27T15:06:18.057Z,69.90
2022-12-27T15:09:19.869Z,69.75
2022-12-27T15:12:04.938Z,64.72
2022-12-27T15:14:55.238Z,67.05
2022-12-27T15:18:01.529Z,71.97
2022-12-27T15:20:43.733Z,68.13
2022-12-27T15:23:46.383Z,66.82
2022-12-27T15:26:34.833Z,67.35
2022-12-27T15:29:27.561Z,71.75
2022-12-27T15:32:10.204Z,67.78
2022-12-27T15:34:46.556Z,64.78
2022-12-27T15:37:55.035Z,67.25
2022-12-27T15:40:25.315Z,69.55
2022-12-27T15:43:08.649Z,67.63
2022-12-27T15:46:00.739Z,66.07
2022-12-27T15:48:53.127Z,65.20
2022-12-27T15:52:02.431Z,67.13
2022-12-27T15:54:53.442Z,67.50
2022-12-27T15:57:21.300Z,70.65
2022-12-27T15:59:54.061Z,74.03
2022-12-27T16:02:24.862Z,70.60
2022-12-27T16:05:01.793Z,68.93
2022-12-27T16:07:44.329Z,72.97
2022-12-27T16:10:32.207Z,70.60
2022-12-27T16:13:25.539Z,71.25
2022-12-27T16:15:54.425Z,70.22
2022-12-27T16:18:21.860Z,80.57
2022-12-27T16:20:55.141Z,69.72
2022-12-27T16:23:24.623Z,67.00
2022-12-27T16:26:15.823Z,67.70
2022-12-27T16:28:57.143Z,60.28
2022-12-27T16:31:31.102Z,64.53
2022-12-27T16:34:09.954Z,56.58
2022-12-27T16:36:44.697Z,64.65
2022-12-27T16:39:45.782Z,67.03
2022-12-27T16:42:13.531Z,74.72
2022-12-27T16:44:57.512Z,75.47
2022-12-27T16:47:47.096Z,66.50
2022-12-27T16:50:29.245Z,68.55
2022-12-27T16:53:15.140Z,64.60
2022-12-27T16:55:47.126Z,66.72
2022-12-27T16:58:21.923Z,68.18
2022-12-27T17:00:54.686Z,71.35
2022-12-27T17:03:22.738Z,68.60
2022-12-27T17:06:30.082Z,68.22
2022-12-27T17:08:42.582Z,69.15
2022-12-27T17:11:26.053Z,68.95
2022-12-27T17:13:58.259Z,65.07
2022-12-27T17:16:32.512Z,77.70
2022-12-27T17:19:03.560Z,75.88
2022-12-27T17:21:32.885Z,74.60
2022-12-27T17:24:10.171Z,80.28
2022-12-27T17:26:59.292Z,91.10
2022-12-27T17:30:04.009Z,78.32
2022-12-27T17:32:50.123Z,81.22
2022-12-27T17:35:45.709Z,72.60
2022-12-27T17:38:37.883Z,74.50
2022-12-27T17:41:56.426Z,66.45
2022-12-27T17:44:39.512Z,68.45
2022-12-27T17:47:27.015Z,71.47
2022-12-27T17:49:59.197Z,66.95
2022-12-27T17:52:45.477Z,68.78
2022-12-27T17:55:51.913Z,69.97
2022-12-27T17:58:20.322Z,73.13
2022-12-27T18:00:57.962Z,80.95
2022-12-27T18:03:39.402Z,86.78
2022-12-27T18:06:07.440Z,91.28
2022-12-27T18:08:36.147Z,84.63
2022-12-27T18:11:06.006Z,81.30
2022-12-27T18:13:38.590Z,79.40
2022-12-27T18:16:24.445Z,75.32
2022-12-27T18:21:57.555Z,73.78
2022-12-27T18:24:33.027Z,69.22
2022-12-27T18:27:06.599Z,72.97
2022-12-27T18:29:38.898Z,74.38
2022-12-27T18:32:09.464Z,68.63
2022-12-27T18:34:55.245Z,68.72
2022-12-27T18:37:26.257Z,69.57
2022-12-27T18:39:57.923Z,63.55
2022-12-27T18:42:31.364Z,61.97
2022-12-27T18:45:33.690Z,70.43
2022-12-27T18:48:04.646Z,66.18
2022-12-27T18:50:34.408Z,78.28
2022-12-27T18:53:26.331Z,64.97
2022-12-27T18:56:04.626Z,70.03
2022-12-27T18:58:33.359Z,72.70
2022-12-27T19:01:04.189Z,70.28
2022-12-27T19:03:38.228Z,69.95
2022-12-27T19:06:32.031Z,77.28
2022-12-27T19:08:59.364Z,81.78
2022-12-27T19:11:33.044Z,81.45
2022-12-27T19:14:02.142Z,74.38
2022-12-27T19:16:34.645Z,79.13
2022-12-27T19:19:20.435Z,75.45
2022-12-27T19:21:47.837Z,82.07
2022-12-27T19:24:28.159Z,76.03
2022-12-27T19:26:58.315Z,72.88
2022-12-27T19:30:16.766Z,72.13
2022-12-27T19:32:44.272Z,74.28
2022-12-27T19:35:13.765Z,84.35
2022-12-27T19:37:41.194Z,76.75
2022-12-27T19:40:14.756Z,79.07
2022-12-27T19:42:43.651Z,77.15
2022-12-27T19:45:20.832Z,81.78
2022-12-27T19:47:51.977Z,89.43
2022-12-27T19:50:19.509Z,67.43
2022-12-27T19:52:49.105Z,75.68
2022-12-27T19:55:27.264Z,65.00
2022-12-27T19:57:55.816Z,79.82
2022-12-27T20:00:25.298Z,68.70
2022-12-27T20:02:53.289Z,68.13
2022-12-27T20:06:12.948Z,65.03
2022-12-27T20:08:42.666Z,81.13
2022-12-27T20:11:15.928Z,83.88
2022-12-27T20:13:43.220Z,73.28
2022-12-27T20:16:13.602Z,67.10
2022-12-27T20:18:41.861Z,68.25
2022-12-27T20:21:17.404Z,68.45
2022-12-27T20:26:16.367Z,68.25
2022-12-27T20:28:44.084Z,72.47
2022-12-27T20:31:15.544Z,65.95
2022-12-27T20:33:53.498Z,73.32
2022-12-27T20:36:22.457Z,73.10
2022-12-27T20:38:50.335Z,70.55
2022-12-27T20:41:20.846Z,70.95
2022-12-27T20:43:58.961Z,74.50
2022-12-27T20:46:27.043Z,66.78
2022-12-27T20:48:56.285Z,71.63
2022-12-27T20:51:27.636Z,71.60
2022-12-27T20:53:57.746Z,71.90
2022-12-27T20:56:25.736Z,66.10
2022-12-27T20:58:53.966Z,65.25
2022-12-27T21:01:24.499Z,73.10
2022-12-27T21:03:52.249Z,70.93
2022-12-27T21:06:22.536Z,71.75
2022-12-27T21:08:56.582Z,68.20
2022-12-27T21:11:30.404Z,72.50
2022-12-27T21:13:59.788Z,72.47
2022-12-27T21:16:29.935Z,76.72
2022-12-27T21:18:58.724Z,72.85
2022-12-27T21:21:28.937Z,77.57
2022-12-27T21:23:58.201Z,76.75
2022-12-27T21:26:30.819Z,80.15
2022-12-27T21:29:00.144Z,79.30
2022-12-27T21:31:28.789Z,73.53
2022-12-27T21:33:56.716Z,73.30
2022-12-27T21:36:26.893Z,78.82
2022-12-27T21:38:55.647Z,75.50
2022-12-27T21:41:25.983Z,80.22
2022-12-27T21:43:54.705Z,82.57
2022-12-27T21:46:27.768Z,77.45
2022-12-27T21:49:02.124Z,75.50
2022-12-27T21:51:31.269Z,71.65
2022-12-27T21:53:59.427Z,69.03
2022-12-27T21:56:27.139Z,67.10
2022-12-27T21:58:59.179Z,143.35
2022-12-27T22:01:29.960Z,136.02
2022-12-27T22:03:59.623Z,98.32
2022-12-27T22:06:30.514Z,87.38
2022-12-27T22:09:00.811Z,79.18
2022-12-27T22:11:29.845Z,76.85
2022-12-27T22:13:58.013Z,80.32
2022-12-27T22:16:36.217Z,95.72
2022-12-27T22:19:12.642Z,90.20
2022-12-27T22:21:41.980Z,80.25
2022-12-27T22:24:13.286Z,77.63
2022-12-27T22:26:48.783Z,73.68
2022-12-27T22:29:17.444Z,76.22
2022-12-27T22:32:15.180Z,69.95
2022-12-27T22:34:42.916Z,71.07
2022-12-27T22:37:10.625Z,69.88
2022-12-27T22:39:38.243Z,70.15
2022-12-27T22:42:06.033Z,71.65
2022-12-27T22:44:33.696Z,73.03
2022-12-27T22:49:49.403Z,68.47
2022-12-27T22:52:17.229Z,67.35
2022-12-27T22:55:07.137Z,69.13
2022-12-27T22:57:35.089Z,66.32
2022-12-27T23:00:04.895Z,66.93
2022-12-27T23:02:34.274Z,70.88
2022-12-27T23:05:02.990Z,68.15
2022-12-27T23:08:04.154Z,62.03
2022-12-27T23:10:22.039Z,59.97
2022-12-27T23:12:49.789Z,63.75
2022-12-27T23:15:43.984Z,59.97
2022-12-27T23:18:11.747Z,59.50
2022-12-27T23:20:39.451Z,60.22
2022-12-27T23:23:27.212Z,55.05
2022-12-27T23:27:13.602Z,56.45
2022-12-27T23:29:45.046Z,49.67
2022-12-27T23:32:12.721Z,54.03
2022-12-27T23:34:40.266Z,50.90
2022-12-27T23:37:08.027Z,49.65
2022-12-27T23:39:35.532Z,50.03
2022-12-27T23:42:04.042Z,50.70
2022-12-27T23:44:34.858Z,46.95
2022-12-27T23:47:06.095Z,46.58
2022-12-27T23:49:34.261Z,48.65
2022-12-27T23:52:02.403Z,45.80
2022-12-27T23:54:44.907Z,46.72
2022-12-27T23:57:19.905Z,42.78
2022-12-27T23:59:51.806Z,40.10
